createdAt,value
2018-02-15T00:01:10.679Z,15.70
2018-02-15T00:03:39.019Z,15.30
2018-02-15T00:06:06.541Z,14.87
2018-02-15T00:08:34.046Z,15.82
2018-02-15T00:11:01.543Z,15.80
2018-02-15T00:13:29.053Z,17.02
2018-02-15T00:15:56.563Z,17.40
2018-02-15T00:18:24.083Z,16.35
2018-02-15T00:20:51.601Z,16.80
2018-02-15T00:23:19.877Z,17.10
2018-02-15T00:25:47.395Z,17.35
2018-02-15T00:28:14.936Z,16.20
2018-02-15T00:30:42.452Z,16.92
2018-02-15T00:33:09.950Z,14.43
2018-02-15T00:35:37.471Z,15.10
2018-02-15T00:38:04.952Z,14.90
2018-02-15T00:40:32.525Z,16.58
2018-02-15T00:43:00.107Z,15.95
2018-02-15T00:45:28.475Z,15.73
2018-02-15T00:47:56.072Z,15.77
2018-02-15T00:50:23.693Z,14.18
2018-02-15T00:52:51.250Z,15.20
2018-02-15T00:55:18.727Z,14.70
2018-02-15T00:57:46.229Z,13.88
2018-02-15T01:00:13.747Z,15.02
2018-02-15T01:02:41.251Z,12.13
2018-02-15T01:05:08.874Z,13.00
2018-02-15T01:07:36.392Z,13.30
2018-02-15T01:10:03.869Z,13.23
2018-02-15T01:12:31.375Z,13.65
2018-02-15T01:14:58.941Z,11.55
2018-02-15T01:17:26.425Z,13.25
2018-02-15T01:19:53.922Z,12.82
2018-02-15T01:22:21.589Z,13.95
2018-02-15T01:24:49.113Z,12.82
2018-02-15T01:27:16.603Z,13.27
2018-02-15T01:29:44.127Z,14.30
2018-02-15T01:32:11.604Z,13.32
2018-02-15T01:34:39.477Z,12.75
2018-02-15T01:37:07.035Z,13.10
2018-02-15T01:39:34.608Z,14.13
2018-02-15T01:42:02.181Z,12.63
2018-02-15T01:44:29.710Z,12.90
2018-02-15T01:46:57.275Z,12.95
2018-02-15T01:49:24.871Z,12.93
2018-02-15T01:51:52.430Z,13.25
2018-02-15T01:54:19.934Z,13.45
2018-02-15T01:56:47.451Z,13.55
2018-02-15T01:59:14.992Z,13.60
2018-02-15T02:01:42.495Z,13.85
2018-02-15T02:04:10.012Z,13.13
2018-02-15T02:06:37.496Z,13.93
2018-02-15T02:09:05.006Z,13.38
2018-02-15T02:11:32.497Z,11.20
2018-02-15T02:14:00.020Z,12.00
2018-02-15T02:16:27.501Z,11.90
2018-02-15T02:18:55.014Z,11.77
2018-02-15T02:21:22.499Z,11.05
2018-02-15T02:23:52.288Z,11.40
2018-02-15T02:26:19.806Z,10.57
2018-02-15T02:28:47.304Z,12.65
2018-02-15T02:31:14.860Z,11.07
2018-02-15T02:33:42.422Z,9.95
2018-02-15T02:36:10.011Z,10.40
2018-02-15T02:38:37.615Z,9.63
2018-02-15T02:41:05.249Z,9.55
2018-02-15T02:43:32.806Z,10.63
2018-02-15T02:46:00.327Z,10.95
2018-02-15T02:48:28.006Z,8.88
2018-02-15T02:50:55.505Z,10.07
2018-02-15T02:53:23.013Z,9.60
2018-02-15T02:55:50.495Z,9.18
2018-02-15T02:58:18.016Z,10.70
2018-02-15T03:03:19.311Z,9.90
2018-02-15T03:05:46.795Z,10.13
2018-02-15T03:08:14.396Z,9.15
2018-02-15T03:10:41.861Z,9.93
2018-02-15T03:13:09.380Z,9.73
2018-02-15T03:15:36.872Z,10.27
2018-02-15T03:18:04.358Z,9.65
2018-02-15T03:20:31.974Z,10.23
2018-02-15T03:22:59.468Z,10.07
2018-02-15T03:25:26.980Z,10.02
2018-02-15T03:27:54.458Z,10.55
2018-02-15T03:30:21.980Z,11.23
2018-02-15T03:32:49.591Z,10.75
2018-02-15T03:35:17.157Z,9.80
2018-02-15T03:37:44.686Z,9.45
2018-02-15T03:40:12.184Z,10.15
2018-02-15T03:42:39.700Z,9.73
2018-02-15T03:45:07.169Z,8.80
2018-02-15T03:47:34.676Z,8.88
2018-02-15T03:50:02.152Z,9.13
2018-02-15T03:52:29.685Z,9.30
2018-02-15T03:54:57.162Z,9.60
2018-02-15T03:57:24.638Z,9.85
2018-02-15T03:59:52.145Z,10.27
2018-02-15T04:02:19.661Z,9.95
2018-02-15T04:04:47.194Z,9.45
2018-02-15T04:07:14.815Z,9.60
2018-02-15T04:09:42.317Z,9.32
2018-02-15T04:12:09.794Z,9.45
2018-02-15T04:14:37.299Z,9.50
2018-02-15T04:17:04.869Z,9.40
2018-02-15T04:19:32.369Z,9.57
2018-02-15T04:21:59.894Z,10.13
2018-02-15T04:24:27.381Z,10.07
2018-02-15T04:26:54.905Z,9.93
2018-02-15T04:29:22.391Z,10.60
2018-02-15T04:31:49.888Z,10.18
2018-02-15T04:34:17.401Z,10.15
2018-02-15T04:36:44.903Z,9.80
2018-02-15T04:39:12.438Z,10.20
2018-02-15T04:41:39.918Z,10.32
2018-02-15T04:44:07.433Z,10.68
2018-02-15T04:46:34.914Z,10.65
2018-02-15T04:49:02.447Z,11.82
2018-02-15T04:51:29.933Z,9.88
2018-02-15T04:53:57.685Z,9.60
2018-02-15T04:56:25.186Z,10.07
2018-02-15T04:58:52.663Z,10.55
2018-02-15T05:01:20.186Z,9.65
2018-02-15T05:03:47.665Z,12.20
2018-02-15T05:06:15.179Z,11.70
2018-02-15T05:08:42.656Z,11.40
2018-02-15T05:11:10.181Z,11.12
2018-02-15T05:13:37.739Z,10.35
2018-02-15T05:16:05.244Z,10.30
2018-02-15T05:18:32.917Z,11.15
2018-02-15T05:21:00.566Z,10.85
2018-02-15T05:23:28.108Z,11.25
2018-02-15T05:25:55.744Z,11.98
2018-02-15T05:28:23.263Z,11.85
2018-02-15T05:30:50.754Z,12.00
2018-02-15T05:33:18.259Z,12.43
2018-02-15T05:35:45.827Z,11.60
2018-02-15T05:38:13.302Z,10.75
2018-02-15T05:40:40.806Z,11.63
2018-02-15T05:43:08.279Z,10.88
2018-02-15T05:45:35.788Z,11.82
2018-02-15T05:48:03.257Z,14.07
2018-02-15T05:50:31.503Z,11.63
2018-02-15T05:52:59.025Z,11.43
2018-02-15T05:55:26.533Z,11.85
2018-02-15T05:57:54.047Z,11.15
2018-02-15T06:00:21.581Z,12.13
2018-02-15T06:02:49.085Z,11.77
2018-02-15T06:05:16.558Z,12.02
2018-02-15T06:07:44.071Z,12.80
2018-02-15T06:10:11.559Z,11.02
2018-02-15T06:12:39.056Z,13.62
2018-02-15T06:15:06.579Z,10.95
2018-02-15T06:17:36.117Z,9.32
2018-02-15T06:20:03.682Z,11.12
2018-02-15T06:22:31.265Z,12.48
2018-02-15T06:24:58.833Z,11.05
2018-02-15T06:27:26.408Z,12.37
2018-02-15T06:29:53.954Z,11.55
2018-02-15T06:32:21.461Z,12.32
2018-02-15T06:34:48.971Z,12.85
2018-02-15T06:37:16.509Z,12.32
2018-02-15T06:39:43.978Z,10.30
2018-02-15T06:42:11.495Z,10.43
2018-02-15T06:44:38.970Z,10.27
2018-02-15T06:47:06.473Z,11.02
2018-02-15T06:49:33.957Z,10.77
2018-02-15T06:52:01.456Z,10.43
2018-02-15T06:54:28.928Z,9.50
2018-02-15T06:56:56.499Z,9.32
2018-02-15T06:59:24.020Z,9.80
2018-02-15T07:01:51.586Z,10.85
2018-02-15T07:04:19.217Z,9.55
2018-02-15T07:06:46.874Z,10.30
2018-02-15T07:09:14.451Z,10.57
2018-02-15T07:11:42.006Z,10.55
2018-02-15T07:14:09.654Z,9.55
2018-02-15T07:16:37.253Z,10.02
2018-02-15T07:19:04.744Z,9.90
2018-02-15T07:21:32.280Z,9.80
2018-02-15T07:23:59.780Z,9.80
2018-02-15T07:26:27.295Z,10.32
2018-02-15T07:28:54.804Z,10.82
2018-02-15T07:31:22.289Z,10.88
2018-02-15T07:33:49.771Z,10.20
2018-02-15T07:36:17.282Z,11.15
2018-02-15T07:38:44.782Z,12.23
2018-02-15T07:41:12.314Z,11.30
2018-02-15T07:43:39.826Z,12.13
2018-02-15T07:46:07.363Z,10.60
2018-02-15T07:48:34.861Z,11.63
2018-02-15T07:51:02.408Z,9.77
2018-02-15T07:53:29.914Z,9.55
2018-02-15T07:55:57.416Z,9.80
2018-02-15T07:58:24.943Z,11.65
2018-02-15T08:00:53.022Z,10.90
2018-02-15T08:03:20.532Z,11.68
2018-02-15T08:05:48.141Z,10.93
2018-02-15T08:08:15.733Z,9.63
2018-02-15T08:10:43.311Z,10.85
2018-02-15T08:13:10.860Z,10.02
2018-02-15T08:15:38.372Z,9.88
2018-02-15T08:18:05.863Z,9.57
2018-02-15T08:20:33.395Z,9.40
2018-02-15T08:23:00.872Z,9.60
2018-02-15T08:25:28.386Z,9.40
2018-02-15T08:27:55.874Z,9.63
2018-02-15T08:30:23.365Z,10.55
2018-02-15T08:32:50.928Z,11.40
2018-02-15T08:35:18.411Z,10.55
2018-02-15T08:37:45.955Z,11.48
2018-02-15T08:40:14.224Z,10.57
2018-02-15T08:42:41.882Z,12.02
2018-02-15T08:45:09.458Z,12.23
2018-02-15T08:47:37.084Z,11.48
2018-02-15T08:50:04.649Z,11.50
2018-02-15T08:52:32.189Z,12.25
2018-02-15T08:54:59.696Z,11.80
2018-02-15T08:57:27.212Z,10.93
2018-02-15T08:59:54.750Z,11.95
2018-02-15T09:02:22.250Z,11.10
2018-02-15T09:04:49.788Z,10.50
2018-02-15T09:07:17.289Z,10.70
2018-02-15T09:09:44.799Z,8.98
2018-02-15T09:12:12.307Z,10.55
2018-02-15T09:14:39.832Z,10.90
2018-02-15T09:17:08.197Z,10.40
2018-02-15T09:19:35.799Z,11.93
2018-02-15T09:22:03.307Z,10.90
2018-02-15T09:24:30.872Z,10.73
2018-02-15T09:26:58.382Z,12.18
2018-02-15T09:29:25.894Z,11.68
2018-02-15T09:31:53.399Z,11.50
2018-02-15T09:34:20.918Z,11.90
2018-02-15T09:36:48.490Z,11.95
2018-02-15T09:39:15.982Z,11.85
2018-02-15T09:41:43.492Z,13.62
2018-02-15T09:44:10.971Z,13.65
2018-02-15T09:46:38.477Z,13.55
2018-02-15T09:49:05.951Z,13.55
2018-02-15T09:51:33.477Z,13.40
2018-02-15T09:54:01.117Z,15.57
2018-02-15T09:56:28.610Z,15.73
2018-02-15T09:58:56.129Z,14.45
2018-02-15T10:01:23.613Z,15.30
2018-02-15T10:03:51.118Z,13.88
2018-02-15T10:06:18.615Z,14.45
2018-02-15T10:08:46.144Z,14.52
2018-02-15T10:11:13.633Z,14.60
2018-02-15T10:13:41.154Z,15.20
2018-02-15T10:16:08.635Z,15.52
2018-02-15T10:18:36.169Z,14.02
2018-02-15T10:21:03.686Z,15.05
2018-02-15T10:23:31.181Z,15.02
2018-02-15T10:25:58.820Z,16.10
2018-02-15T10:28:26.433Z,15.02
2018-02-15T10:30:53.974Z,15.20
2018-02-15T10:33:21.483Z,14.98
2018-02-15T10:35:49.009Z,13.95
2018-02-15T10:38:16.583Z,14.82
2018-02-15T10:40:44.106Z,15.38
2018-02-15T10:43:11.632Z,15.50
2018-02-15T10:45:39.142Z,19.62
2018-02-15T10:48:06.659Z,18.08
2018-02-15T10:50:34.168Z,17.27
2018-02-15T10:53:01.684Z,16.98
2018-02-15T10:55:29.177Z,17.12
2018-02-15T10:57:56.707Z,16.90
2018-02-15T11:00:29.797Z,17.40
2018-02-15T11:03:03.505Z,17.40
2018-02-15T11:05:32.287Z,17.27
2018-02-15T11:07:59.792Z,17.35
2018-02-15T11:10:27.336Z,16.73
2018-02-15T11:12:54.857Z,15.55
2018-02-15T11:15:22.375Z,14.95
2018-02-15T11:17:49.929Z,15.25
2018-02-15T11:20:17.572Z,13.13
2018-02-15T11:22:45.090Z,12.07
2018-02-15T11:25:12.735Z,12.63
2018-02-15T11:27:40.344Z,11.50
2018-02-15T11:30:07.877Z,12.45
2018-02-15T11:32:35.366Z,12.70
2018-02-15T11:35:03.759Z,14.55
2018-02-15T11:37:31.276Z,14.15
2018-02-15T11:39:59.500Z,13.52
2018-02-15T11:42:27.023Z,13.30
2018-02-15T11:44:54.549Z,11.88
2018-02-15T11:47:22.060Z,11.55
2018-02-15T11:49:49.551Z,11.25
2018-02-15T11:52:17.087Z,12.25
2018-02-15T11:54:44.567Z,12.27
2018-02-15T11:57:12.125Z,10.07
2018-02-15T11:59:39.613Z,12.02
2018-02-15T12:02:07.123Z,9.57
2018-02-15T12:04:34.680Z,10.13
2018-02-15T12:07:02.169Z,10.18
2018-02-15T12:09:29.686Z,9.40
2018-02-15T12:11:57.180Z,9.65
2018-02-15T12:14:25.309Z,9.98
2018-02-15T12:16:52.810Z,10.80
2018-02-15T12:19:20.338Z,10.55
2018-02-15T12:21:47.848Z,10.82
2018-02-15T12:24:15.337Z,10.95
2018-02-15T12:26:42.848Z,11.20
2018-02-15T12:29:10.344Z,10.85
2018-02-15T12:31:37.853Z,12.70
2018-02-15T12:34:05.352Z,11.30
2018-02-15T12:36:32.945Z,11.85
2018-02-15T12:39:00.516Z,11.60
2018-02-15T12:41:28.061Z,10.95
2018-02-15T12:43:55.742Z,11.75
2018-02-15T12:46:23.299Z,11.60
2018-02-15T12:48:50.824Z,11.48
2018-02-15T12:51:18.314Z,12.20
2018-02-15T12:53:45.860Z,13.60
2018-02-15T12:56:13.345Z,13.05
2018-02-15T12:58:40.909Z,12.23
2018-02-15T13:01:08.408Z,13.10
2018-02-15T13:03:35.911Z,13.85
2018-02-15T13:06:03.463Z,14.18
2018-02-15T13:08:30.990Z,15.07
2018-02-15T13:10:58.502Z,14.60
2018-02-15T13:13:31.821Z,13.70
2018-02-15T13:19:16.285Z,14.90
2018-02-15T13:21:43.828Z,15.32
2018-02-15T13:24:11.348Z,14.52
2018-02-15T13:26:38.846Z,15.05
2018-02-15T13:29:06.392Z,15.30
2018-02-15T13:31:33.874Z,15.80
2018-02-15T13:34:01.401Z,16.23
2018-02-15T13:36:28.938Z,16.37
2018-02-15T13:38:57.082Z,17.50
2018-02-15T13:41:24.606Z,16.50
2018-02-15T13:43:52.926Z,16.67
2018-02-15T13:46:20.418Z,16.02
2018-02-15T13:48:47.949Z,16.30
2018-02-15T13:51:15.448Z,15.77
2018-02-15T13:53:42.997Z,14.65
2018-02-15T13:56:10.619Z,14.70
2018-02-15T13:58:38.152Z,15.23
2018-02-15T14:01:05.677Z,15.55
2018-02-15T14:03:33.179Z,15.57
2018-02-15T14:06:00.703Z,15.07
2018-02-15T14:08:28.222Z,15.60
2018-02-15T14:10:55.781Z,14.45
2018-02-15T14:13:23.275Z,15.30
2018-02-15T14:15:50.812Z,14.65
2018-02-15T14:18:18.353Z,15.30
2018-02-15T14:20:46.334Z,15.82
2018-02-15T14:23:13.939Z,17.02
2018-02-15T14:25:41.497Z,15.45
2018-02-15T14:28:09.135Z,15.13
2018-02-15T14:30:36.755Z,15.68
2018-02-15T14:33:04.302Z,16.83
2018-02-15T14:35:31.940Z,15.48
2018-02-15T14:37:59.474Z,15.07
2018-02-15T14:40:27.018Z,18.20
2018-02-15T14:42:54.534Z,15.93
2018-02-15T14:45:22.067Z,15.45
2018-02-15T14:47:49.567Z,16.70
2018-02-15T14:50:17.103Z,16.48
2018-02-15T14:52:44.628Z,15.50
2018-02-15T14:55:12.125Z,15.20
2018-02-15T14:57:39.641Z,15.13
2018-02-15T15:00:07.149Z,15.07
2018-02-15T15:02:34.818Z,15.05
2018-02-15T15:05:02.333Z,15.75
2018-02-15T15:07:29.859Z,15.32
2018-02-15T15:09:57.377Z,13.88
2018-02-15T15:12:24.998Z,15.07
2018-02-15T15:14:53.265Z,15.50
2018-02-15T15:17:20.797Z,15.70
2018-02-15T15:19:48.317Z,15.23
2018-02-15T15:22:15.852Z,15.35
2018-02-15T15:24:43.383Z,15.80
2018-02-15T15:27:11.046Z,15.68
2018-02-15T15:29:38.650Z,15.52
2018-02-15T15:32:06.632Z,15.10
2018-02-15T15:34:34.194Z,17.25
2018-02-15T15:37:01.804Z,17.02
2018-02-15T15:39:29.316Z,15.57
2018-02-15T15:41:56.912Z,17.92
2018-02-15T15:44:24.717Z,16.40
2018-02-15T15:46:52.265Z,15.65
2018-02-15T15:49:19.771Z,15.80
2018-02-15T15:51:47.325Z,15.88
2018-02-15T15:54:14.842Z,16.37
2018-02-15T15:56:42.370Z,16.05
2018-02-15T15:59:09.899Z,16.60
2018-02-15T16:01:37.581Z,17.17
2018-02-15T16:04:05.133Z,17.10
2018-02-15T16:06:33.402Z,17.08
2018-02-15T16:09:01.556Z,15.82
2018-02-15T16:11:29.569Z,15.52
2018-02-15T16:13:57.079Z,17.25
2018-02-15T16:16:24.623Z,16.75
2018-02-15T16:18:52.282Z,17.50
2018-02-15T16:21:19.803Z,17.20
2018-02-15T16:23:47.330Z,17.62
2018-02-15T16:26:14.972Z,17.77
2018-02-15T16:31:16.295Z,17.90
2018-02-15T16:33:43.822Z,18.62
2018-02-15T16:36:11.387Z,17.37
2018-02-15T16:38:38.889Z,19.10
2018-02-15T16:41:06.580Z,17.83
2018-02-15T16:43:34.103Z,18.23
2018-02-15T16:46:01.604Z,16.95
2018-02-15T16:48:29.145Z,17.75
2018-02-15T16:50:56.670Z,17.17
2018-02-15T16:53:24.574Z,19.42
2018-02-15T16:55:52.706Z,29.52
2018-02-15T16:58:20.241Z,24.17
2018-02-15T17:00:47.823Z,21.35
2018-02-15T17:03:15.345Z,19.05
2018-02-15T17:05:42.845Z,19.35
2018-02-15T17:08:10.471Z,19.45
2018-02-15T17:10:38.030Z,20.90
2018-02-15T17:13:05.750Z,21.43
2018-02-15T17:15:33.414Z,20.30
2018-02-15T17:18:00.981Z,23.70
2018-02-15T17:20:28.703Z,22.10
2018-02-15T17:22:56.243Z,23.38
2018-02-15T17:25:23.799Z,21.37
2018-02-15T17:27:51.442Z,20.90
2018-02-15T17:30:18.966Z,21.60
2018-02-15T17:32:46.913Z,22.02
2018-02-15T17:35:14.493Z,24.90
2018-02-15T17:37:42.021Z,29.40
2018-02-15T17:40:09.514Z,25.40
2018-02-15T17:42:37.035Z,27.40
2018-02-15T17:45:04.571Z,29.80
2018-02-15T17:47:32.587Z,41.37
2018-02-15T17:50:00.183Z,35.50
2018-02-15T17:52:27.735Z,29.60
2018-02-15T17:54:55.311Z,24.63
2018-02-15T17:57:22.829Z,20.93
2018-02-15T17:59:50.345Z,21.90
2018-02-15T18:02:17.907Z,26.87
2018-02-15T18:04:45.481Z,27.83
2018-02-15T18:07:13.026Z,28.12
2018-02-15T18:09:40.543Z,25.12
2018-02-15T18:12:08.472Z,26.95
2018-02-15T18:14:36.077Z,23.60
2018-02-15T18:17:03.671Z,21.98
2018-02-15T18:19:31.263Z,22.35
2018-02-15T18:21:58.813Z,22.08
2018-02-15T18:24:26.583Z,22.52
2018-02-15T18:26:54.119Z,21.12
2018-02-15T18:29:21.691Z,20.67
2018-02-15T18:31:49.209Z,21.47
2018-02-15T18:34:16.753Z,20.40
2018-02-15T18:36:44.344Z,20.50
2018-02-15T18:39:11.905Z,20.30
2018-02-15T18:41:39.711Z,20.87
2018-02-15T18:44:07.245Z,19.83
2018-02-15T18:46:34.829Z,22.10
2018-02-15T18:49:02.390Z,22.00
2018-02-15T18:51:29.918Z,23.40
2018-02-15T18:53:57.493Z,21.98
2018-02-15T18:56:25.085Z,22.00
2018-02-15T18:58:52.697Z,20.87
2018-02-15T19:01:20.218Z,21.27
2018-02-15T19:03:47.744Z,22.02
2018-02-15T19:06:15.344Z,20.10
2018-02-15T19:08:42.901Z,20.50
2018-02-15T19:11:10.422Z,19.20
2018-02-15T19:13:37.958Z,19.57
2018-02-15T19:16:05.654Z,18.43
2018-02-15T19:18:33.174Z,18.50
2018-02-15T19:21:01.170Z,18.97
2018-02-15T19:23:28.711Z,19.10
2018-02-15T19:25:56.254Z,22.60
2018-02-15T19:28:23.822Z,16.80
2018-02-15T19:30:51.566Z,16.50
2018-02-15T19:33:19.093Z,17.95
2018-02-15T19:35:46.921Z,18.75
2018-02-15T19:38:14.425Z,17.30
2018-02-15T19:40:41.970Z,19.85
2018-02-15T19:43:09.495Z,17.98
2018-02-15T19:45:37.026Z,17.37
2018-02-15T19:48:04.804Z,17.50
2018-02-15T19:50:32.414Z,16.83
2018-02-15T19:52:59.987Z,20.00
2018-02-15T19:55:27.585Z,18.10
2018-02-15T19:57:55.497Z,22.07
2018-02-15T20:00:23.064Z,20.13
2018-02-15T20:02:50.600Z,16.97
2018-02-15T20:05:18.172Z,24.37
2018-02-15T20:07:45.815Z,20.90
2018-02-15T20:10:13.378Z,18.85
2018-02-15T20:12:40.897Z,17.03
2018-02-15T20:15:09.271Z,18.58
2018-02-15T20:17:36.883Z,19.87
2018-02-15T20:20:10.148Z,19.12
2018-02-15T20:22:37.640Z,19.48
2018-02-15T20:25:05.234Z,19.20
2018-02-15T20:30:37.107Z,20.20
2018-02-15T20:33:04.619Z,18.50
2018-02-15T20:35:32.154Z,18.83
2018-02-15T20:38:05.545Z,18.50
2018-02-15T20:40:36.706Z,19.90
2018-02-15T20:43:04.383Z,19.83
2018-02-15T20:45:31.909Z,18.60
2018-02-15T20:47:59.425Z,18.87
2018-02-15T20:50:32.393Z,19.23
2018-02-15T20:53:05.626Z,19.13
2018-02-15T20:55:38.608Z,18.00
2018-02-15T20:58:06.827Z,18.60
2018-02-15T21:00:34.528Z,16.83
2018-02-15T21:03:02.208Z,18.30
2018-02-15T21:05:29.778Z,19.23
2018-02-15T21:07:57.337Z,19.87
2018-02-15T21:10:24.843Z,26.47
2018-02-15T21:12:52.411Z,20.80
2018-02-15T21:15:19.981Z,20.83
2018-02-15T21:17:47.506Z,22.33
2018-02-15T21:20:15.039Z,21.20
2018-02-15T21:22:42.541Z,23.20
2018-02-15T21:25:10.057Z,24.80
2018-02-15T21:27:37.628Z,25.58
2018-02-15T21:30:05.340Z,22.90
2018-02-15T21:32:32.895Z,23.37
2018-02-15T21:35:00.415Z,22.93
2018-02-15T21:37:27.940Z,21.87
2018-02-15T21:39:55.492Z,21.50
2018-02-15T21:42:23.029Z,20.73
2018-02-15T21:44:50.530Z,20.47
2018-02-15T21:47:18.040Z,19.80
2018-02-15T21:49:45.553Z,19.20
2018-02-15T21:52:13.078Z,18.10
2018-02-15T21:54:40.611Z,18.43
2018-02-15T21:57:08.158Z,18.70
2018-02-15T21:59:35.662Z,20.47
2018-02-15T22:02:03.170Z,20.10
2018-02-15T22:04:30.704Z,19.57
2018-02-15T22:06:58.221Z,20.83
2018-02-15T22:09:25.792Z,19.10
2018-02-15T22:11:53.286Z,18.77
2018-02-15T22:14:20.986Z,18.90
2018-02-15T22:16:48.489Z,20.43
2018-02-15T22:19:16.006Z,20.00
2018-02-15T22:21:43.539Z,19.30
2018-02-15T22:24:11.046Z,18.20
2018-02-15T22:26:38.569Z,18.90
2018-02-15T22:29:06.065Z,19.50
2018-02-15T22:31:33.608Z,21.77
2018-02-15T22:34:01.128Z,20.73
2018-02-15T22:36:28.667Z,19.97
2018-02-15T22:39:00.461Z,18.50
2018-02-15T22:41:27.980Z,19.50
2018-02-15T22:43:55.553Z,18.03
2018-02-15T22:46:23.074Z,20.40
2018-02-15T22:48:50.564Z,19.80
2018-02-15T22:51:18.373Z,19.47
2018-02-15T22:53:45.869Z,20.73
2018-02-15T22:56:13.375Z,20.97
2018-02-15T22:58:40.901Z,19.87
2018-02-15T23:01:08.389Z,20.60
2018-02-15T23:03:35.951Z,22.60
2018-02-15T23:06:03.510Z,21.40
2018-02-15T23:08:31.016Z,20.73
2018-02-15T23:10:58.489Z,21.50
2018-02-15T23:13:26.003Z,21.67
2018-02-15T23:15:53.549Z,22.93
2018-02-15T23:18:21.168Z,23.17
2018-02-15T23:20:48.725Z,22.90
2018-02-15T23:23:17.016Z,21.73
2018-02-15T23:25:44.810Z,21.27
2018-02-15T23:28:12.337Z,22.83
2018-02-15T23:30:39.923Z,22.40
2018-02-15T23:33:07.493Z,21.53
2018-02-15T23:35:35.038Z,20.67
2018-02-15T23:38:02.538Z,21.13
2018-02-15T23:40:30.044Z,21.50
2018-02-15T23:42:57.565Z,21.77
2018-02-15T23:45:25.074Z,21.37
2018-02-15T23:47:52.587Z,20.60
2018-02-15T23:50:20.372Z,17.97
2018-02-15T23:52:47.862Z,20.83
2018-02-15T23:55:15.389Z,22.80
2018-02-15T23:57:42.879Z,24.63
